sensor_id;sensor_type;location;lat;lon;timestamp;P1;durP1;ratioP1;P2;durP2;ratioP2
60975;SDS011;46849;48.154;17.042;2022-12-26T00:03:04;12.05;;;6.78;;
60975;SDS011;46849;48.154;17.042;2022-12-26T00:05:58;12.48;;;7.28;;
60975;SDS011;46849;48.154;17.042;2022-12-26T00:08:48;12.43;;;6.85;;
60975;SDS011;46849;48.154;17.042;2022-12-26T00:11:33;13.30;;;7.70;;
60975;SDS011;46849;48.154;17.042;2022-12-26T00:14:18;11.90;;;7.18;;
60975;SDS011;46849;48.154;17.042;2022-12-26T00:17:03;11.48;;;7.35;;
60975;SDS011;46849;48.154;17.042;2022-12-26T00:19:48;10.68;;;6.55;;
60975;SDS011;46849;48.154;17.042;2022-12-26T00:22:33;16.08;;;6.80;;
60975;SDS011;46849;48.154;17.042;2022-12-26T00:25:17;9.95;;;6.53;;
60975;SDS011;46849;48.154;17.042;2022-12-26T00:28:02;11.80;;;7.75;;
60975;SDS011;46849;48.154;17.042;2022-12-26T00:30:47;11.40;;;7.07;;
60975;SDS011;46849;48.154;17.042;2022-12-26T00:33:32;11.85;;;7.00;;
60975;SDS011;46849;48.154;17.042;2022-12-26T00:36:20;13.10;;;7.75;;
60975;SDS011;46849;48.154;17.042;2022-12-26T00:39:07;14.00;;;7.50;;
60975;SDS011;46849;48.154;17.042;2022-12-26T00:41:51;13.43;;;7.03;;
60975;SDS011;46849;48.154;17.042;2022-12-26T00:44:36;10.30;;;6.50;;
60975;SDS011;46849;48.154;17.042;2022-12-26T00:47:21;11.00;;;7.00;;
60975;SDS011;46849;48.154;17.042;2022-12-26T00:50:06;14.07;;;7.68;;
60975;SDS011;46849;48.154;17.042;2022-12-26T00:52:50;12.27;;;7.07;;
60975;SDS011;46849;48.154;17.042;2022-12-26T00:55:35;10.63;;;6.93;;
60975;SDS011;46849;48.154;17.042;2022-12-26T00:58:20;13.30;;;7.55;;
60975;SDS011;46849;48.154;17.042;2022-12-26T01:01:07;10.75;;;6.18;;
60975;SDS011;46849;48.154;17.042;2022-12-26T01:03:53;10.95;;;7.50;;
60975;SDS011;46849;48.154;17.042;2022-12-26T01:06:37;11.38;;;7.53;;
60975;SDS011;46849;48.154;17.042;2022-12-26T01:09:22;15.57;;;8.93;;
60975;SDS011;46849;48.154;17.042;2022-12-26T01:12:07;13.32;;;7.63;;
60975;SDS011;46849;48.154;17.042;2022-12-26T01:14:56;15.02;;;8.10;;
60975;SDS011;46849;48.154;17.042;2022-12-26T01:17:43;10.80;;;6.78;;
60975;SDS011;46849;48.154;17.042;2022-12-26T01:20:28;15.88;;;8.40;;
60975;SDS011;46849;48.154;17.042;2022-12-26T01:23:13;22.23;;;12.05;;
60975;SDS011;46849;48.154;17.042;2022-12-26T01:25:59;16.52;;;9.02;;
60975;SDS011;46849;48.154;17.042;2022-12-26T01:28:44;14.82;;;7.93;;
60975;SDS011;46849;48.154;17.042;2022-12-26T01:31:30;14.02;;;7.35;;
60975;SDS011;46849;48.154;17.042;2022-12-26T01:34:14;13.85;;;8.05;;
60975;SDS011;46849;48.154;17.042;2022-12-26T01:36:59;12.73;;;7.85;;
60975;SDS011;46849;48.154;17.042;2022-12-26T01:39:44;15.23;;;9.55;;
60975;SDS011;46849;48.154;17.042;2022-12-26T01:42:34;13.05;;;8.55;;
60975;SDS011;46849;48.154;17.042;2022-12-26T01:45:27;18.70;;;9.93;;
60975;SDS011;46849;48.154;17.042;2022-12-26T01:48:15;16.57;;;8.93;;
60975;SDS011;46849;48.154;17.042;2022-12-26T01:51:01;14.90;;;8.70;;
60975;SDS011;46849;48.154;17.042;2022-12-26T01:53:49;15.23;;;9.40;;
60975;SDS011;46849;48.154;17.042;2022-12-26T01:56:38;14.00;;;8.27;;
60975;SDS011;46849;48.154;17.042;2022-12-26T01:59:26;13.23;;;8.57;;
60975;SDS011;46849;48.154;17.042;2022-12-26T02:02:14;13.75;;;8.25;;
60975;SDS011;46849;48.154;17.042;2022-12-26T02:05:03;15.13;;;8.68;;
60975;SDS011;46849;48.154;17.042;2022-12-26T02:08:17;17.15;;;8.90;;
60975;SDS011;46849;48.154;17.042;2022-12-26T02:11:12;15.38;;;9.95;;
60975;SDS011;46849;48.154;17.042;2022-12-26T02:14:01;16.30;;;9.32;;
60975;SDS011;46849;48.154;17.042;2022-12-26T02:16:49;21.40;;;11.23;;
60975;SDS011;46849;48.154;17.042;2022-12-26T02:35:12;21.20;;;11.55;;
60975;SDS011;46849;48.154;17.042;2022-12-26T02:56:48;17.13;;;11.15;;
60975;SDS011;46849;48.154;17.042;2022-12-26T02:59:55;20.95;;;12.20;;
60975;SDS011;46849;48.154;17.042;2022-12-26T03:06:28;17.02;;;10.70;;
60975;SDS011;46849;48.154;17.042;2022-12-26T03:09:34;18.10;;;10.93;;
60975;SDS011;46849;48.154;17.042;2022-12-26T03:12:42;18.92;;;11.15;;
60975;SDS011;46849;48.154;17.042;2022-12-26T03:15:56;18.67;;;10.68;;
60975;SDS011;46849;48.154;17.042;2022-12-26T03:19:05;20.15;;;10.75;;
60975;SDS011;46849;48.154;17.042;2022-12-26T03:21:53;20.65;;;12.02;;
60975;SDS011;46849;48.154;17.042;2022-12-26T03:24:40;19.92;;;11.55;;
60975;SDS011;46849;48.154;17.042;2022-12-26T03:27:44;17.50;;;10.93;;
60975;SDS011;46849;48.154;17.042;2022-12-26T03:30:29;20.38;;;11.65;;
60975;SDS011;46849;48.154;17.042;2022-12-26T03:33:33;18.75;;;10.75;;
60975;SDS011;46849;48.154;17.042;2022-12-26T03:49:24;17.58;;;10.32;;
60975;SDS011;46849;48.154;17.042;2022-12-26T03:55:35;18.70;;;10.90;;
60975;SDS011;46849;48.154;17.042;2022-12-26T03:59:12;18.52;;;11.55;;
60975;SDS011;46849;48.154;17.042;2022-12-26T04:02:19;19.23;;;10.95;;
60975;SDS011;46849;48.154;17.042;2022-12-26T04:05:23;17.33;;;10.55;;
60975;SDS011;46849;48.154;17.042;2022-12-26T04:08:33;18.00;;;11.65;;
60975;SDS011;46849;48.154;17.042;2022-12-26T04:11:58;20.23;;;11.35;;
60975;SDS011;46849;48.154;17.042;2022-12-26T04:15:05;20.02;;;11.65;;
60975;SDS011;46849;48.154;17.042;2022-12-26T04:28:00;22.77;;;13.10;;
60975;SDS011;46849;48.154;17.042;2022-12-26T04:31:12;22.48;;;13.50;;
60975;SDS011;46849;48.154;17.042;2022-12-26T04:34:27;18.38;;;11.13;;
60975;SDS011;46849;48.154;17.042;2022-12-26T04:37:38;19.25;;;11.50;;
60975;SDS011;46849;48.154;17.042;2022-12-26T04:40:45;18.88;;;11.35;;
60975;SDS011;46849;48.154;17.042;2022-12-26T04:43:56;21.48;;;12.75;;
60975;SDS011;46849;48.154;17.042;2022-12-26T04:47:02;18.92;;;11.60;;
60975;SDS011;46849;48.154;17.042;2022-12-26T04:49:46;22.70;;;13.55;;
60975;SDS011;46849;48.154;17.042;2022-12-26T04:52:49;20.75;;;12.80;;
60975;SDS011;46849;48.154;17.042;2022-12-26T04:55:43;23.10;;;12.50;;
60975;SDS011;46849;48.154;17.042;2022-12-26T04:58:28;18.42;;;11.27;;
60975;SDS011;46849;48.154;17.042;2022-12-26T05:01:13;19.88;;;12.00;;
60975;SDS011;46849;48.154;17.042;2022-12-26T05:04:17;19.67;;;11.80;;
60975;SDS011;46849;48.154;17.042;2022-12-26T05:07:26;21.55;;;12.52;;
60975;SDS011;46849;48.154;17.042;2022-12-26T05:10:32;18.98;;;11.90;;
60975;SDS011;46849;48.154;17.042;2022-12-26T05:13:16;19.15;;;10.55;;
60975;SDS011;46849;48.154;17.042;2022-12-26T05:16:01;20.23;;;12.13;;
60975;SDS011;46849;48.154;17.042;2022-12-26T05:19:04;18.20;;;11.63;;
60975;SDS011;46849;48.154;17.042;2022-12-26T05:22:08;16.67;;;10.18;;
60975;SDS011;46849;48.154;17.042;2022-12-26T05:25:16;19.88;;;11.38;;
60975;SDS011;46849;48.154;17.042;2022-12-26T05:28:22;18.33;;;11.30;;
60975;SDS011;46849;48.154;17.042;2022-12-26T05:31:25;19.58;;;11.18;;
60975;SDS011;46849;48.154;17.042;2022-12-26T05:34:10;16.65;;;10.90;;
60975;SDS011;46849;48.154;17.042;2022-12-26T05:36:57;20.35;;;11.90;;
60975;SDS011;46849;48.154;17.042;2022-12-26T05:39:42;20.25;;;11.68;;
60975;SDS011;46849;48.154;17.042;2022-12-26T05:42:27;17.77;;;10.90;;
60975;SDS011;46849;48.154;17.042;2022-12-26T05:45:12;17.85;;;10.07;;
60975;SDS011;46849;48.154;17.042;2022-12-26T05:47:57;19.67;;;11.35;;
60975;SDS011;46849;48.154;17.042;2022-12-26T05:50:43;18.85;;;10.98;;
60975;SDS011;46849;48.154;17.042;2022-12-26T05:53:28;18.52;;;11.52;;
60975;SDS011;46849;48.154;17.042;2022-12-26T05:56:14;20.40;;;11.70;;
60975;SDS011;46849;48.154;17.042;2022-12-26T05:59:00;20.48;;;11.55;;
60975;SDS011;46849;48.154;17.042;2022-12-26T06:01:45;18.20;;;11.32;;
60975;SDS011;46849;48.154;17.042;2022-12-26T06:04:30;15.35;;;10.65;;
60975;SDS011;46849;48.154;17.042;2022-12-26T06:07:16;19.73;;;11.70;;
60975;SDS011;46849;48.154;17.042;2022-12-26T06:10:01;16.88;;;11.27;;
60975;SDS011;46849;48.154;17.042;2022-12-26T06:12:46;17.23;;;10.48;;
60975;SDS011;46849;48.154;17.042;2022-12-26T06:15:30;19.38;;;11.60;;
60975;SDS011;46849;48.154;17.042;2022-12-26T06:18:15;17.55;;;11.20;;
60975;SDS011;46849;48.154;17.042;2022-12-26T06:21:06;18.20;;;11.32;;
60975;SDS011;46849;48.154;17.042;2022-12-26T06:23:53;17.42;;;10.52;;
60975;SDS011;46849;48.154;17.042;2022-12-26T06:26:38;22.30;;;11.45;;
60975;SDS011;46849;48.154;17.042;2022-12-26T06:29:24;19.33;;;10.82;;
60975;SDS011;46849;48.154;17.042;2022-12-26T06:32:08;16.15;;;9.88;;
60975;SDS011;46849;48.154;17.042;2022-12-26T06:34:53;16.48;;;9.65;;
60975;SDS011;46849;48.154;17.042;2022-12-26T06:37:38;15.18;;;9.82;;
60975;SDS011;46849;48.154;17.042;2022-12-26T06:40:22;17.90;;;10.38;;
60975;SDS011;46849;48.154;17.042;2022-12-26T06:43:07;17.60;;;10.27;;
60975;SDS011;46849;48.154;17.042;2022-12-26T06:45:53;16.20;;;9.80;;
60975;SDS011;46849;48.154;17.042;2022-12-26T06:48:42;17.60;;;10.60;;
60975;SDS011;46849;48.154;17.042;2022-12-26T06:51:28;17.73;;;9.35;;
60975;SDS011;46849;48.154;17.042;2022-12-26T06:54:12;13.63;;;8.48;;
60975;SDS011;46849;48.154;17.042;2022-12-26T06:56:57;11.82;;;7.50;;
60975;SDS011;46849;48.154;17.042;2022-12-26T06:59:42;12.75;;;8.05;;
60975;SDS011;46849;48.154;17.042;2022-12-26T07:02:27;14.98;;;9.63;;
60975;SDS011;46849;48.154;17.042;2022-12-26T07:05:11;12.05;;;8.07;;
60975;SDS011;46849;48.154;17.042;2022-12-26T07:07:56;13.32;;;8.00;;
60975;SDS011;46849;48.154;17.042;2022-12-26T07:10:41;17.20;;;9.15;;
60975;SDS011;46849;48.154;17.042;2022-12-26T07:13:26;14.85;;;8.48;;
60975;SDS011;46849;48.154;17.042;2022-12-26T07:16:10;15.57;;;9.00;;
60975;SDS011;46849;48.154;17.042;2022-12-26T07:18:56;12.88;;;8.05;;
60975;SDS011;46849;48.154;17.042;2022-12-26T07:21:41;14.75;;;9.18;;
60975;SDS011;46849;48.154;17.042;2022-12-26T07:24:26;14.43;;;9.43;;
60975;SDS011;46849;48.154;17.042;2022-12-26T07:27:11;16.55;;;8.98;;
60975;SDS011;46849;48.154;17.042;2022-12-26T07:29:56;15.93;;;9.93;;
60975;SDS011;46849;48.154;17.042;2022-12-26T07:32:40;14.45;;;8.50;;
60975;SDS011;46849;48.154;17.042;2022-12-26T07:35:25;17.50;;;9.88;;
60975;SDS011;46849;48.154;17.042;2022-12-26T07:38:10;17.27;;;9.75;;
60975;SDS011;46849;48.154;17.042;2022-12-26T07:40:55;16.90;;;9.45;;
60975;SDS011;46849;48.154;17.042;2022-12-26T07:43:40;15.93;;;9.60;;
60975;SDS011;46849;48.154;17.042;2022-12-26T07:46:25;15.35;;;9.93;;
60975;SDS011;46849;48.154;17.042;2022-12-26T07:49:10;18.95;;;10.20;;
60975;SDS011;46849;48.154;17.042;2022-12-26T07:51:56;15.30;;;9.65;;
60975;SDS011;46849;48.154;17.042;2022-12-26T07:54:40;16.48;;;10.13;;
60975;SDS011;46849;48.154;17.042;2022-12-26T07:57:25;16.95;;;9.50;;
60975;SDS011;46849;48.154;17.042;2022-12-26T08:00:10;14.63;;;9.32;;
60975;SDS011;46849;48.154;17.042;2022-12-26T08:02:58;16.95;;;9.07;;
60975;SDS011;46849;48.154;17.042;2022-12-26T08:05:47;16.40;;;9.23;;
60975;SDS011;46849;48.154;17.042;2022-12-26T08:08:33;15.47;;;10.80;;
60975;SDS011;46849;48.154;17.042;2022-12-26T08:11:19;15.98;;;9.85;;
60975;SDS011;46849;48.154;17.042;2022-12-26T08:14:07;20.83;;;11.73;;
60975;SDS011;46849;48.154;17.042;2022-12-26T08:16:52;16.70;;;11.13;;
60975;SDS011;46849;48.154;17.042;2022-12-26T08:19:38;16.35;;;9.93;;
60975;SDS011;46849;48.154;17.042;2022-12-26T08:22:23;16.98;;;11.18;;
60975;SDS011;46849;48.154;17.042;2022-12-26T08:25:08;15.70;;;10.63;;
60975;SDS011;46849;48.154;17.042;2022-12-26T08:27:53;17.80;;;11.07;;
60975;SDS011;46849;48.154;17.042;2022-12-26T08:30:38;16.75;;;10.20;;
60975;SDS011;46849;48.154;17.042;2022-12-26T08:33:26;19.33;;;10.88;;
60975;SDS011;46849;48.154;17.042;2022-12-26T08:36:12;18.17;;;12.15;;
60975;SDS011;46849;48.154;17.042;2022-12-26T08:38:57;19.27;;;10.57;;
60975;SDS011;46849;48.154;17.042;2022-12-26T08:41:42;22.52;;;13.50;;
60975;SDS011;46849;48.154;17.042;2022-12-26T08:44:27;18.45;;;11.20;;
60975;SDS011;46849;48.154;17.042;2022-12-26T08:47:12;18.42;;;11.88;;
60975;SDS011;46849;48.154;17.042;2022-12-26T08:49:56;18.30;;;11.02;;
60975;SDS011;46849;48.154;17.042;2022-12-26T08:52:41;20.10;;;12.48;;
60975;SDS011;46849;48.154;17.042;2022-12-26T08:55:27;23.58;;;12.20;;
60975;SDS011;46849;48.154;17.042;2022-12-26T08:58:11;17.83;;;11.25;;
60975;SDS011;46849;48.154;17.042;2022-12-26T09:03:55;21.55;;;13.07;;
60975;SDS011;46849;48.154;17.042;2022-12-26T09:06:41;20.85;;;11.75;;
60975;SDS011;46849;48.154;17.042;2022-12-26T09:09:26;20.15;;;11.90;;
60975;SDS011;46849;48.154;17.042;2022-12-26T09:12:10;17.58;;;11.40;;
60975;SDS011;46849;48.154;17.042;2022-12-26T09:14:57;18.05;;;11.38;;
60975;SDS011;46849;48.154;17.042;2022-12-26T09:17:42;19.45;;;12.40;;
60975;SDS011;46849;48.154;17.042;2022-12-26T09:20:27;21.98;;;13.25;;
60975;SDS011;46849;48.154;17.042;2022-12-26T09:23:12;22.63;;;13.05;;
60975;SDS011;46849;48.154;17.042;2022-12-26T09:26:17;24.17;;;15.20;;
60975;SDS011;46849;48.154;17.042;2022-12-26T09:29:03;22.27;;;13.05;;
60975;SDS011;46849;48.154;17.042;2022-12-26T09:31:48;21.58;;;13.65;;
60975;SDS011;46849;48.154;17.042;2022-12-26T09:34:33;28.90;;;15.45;;
60975;SDS011;46849;48.154;17.042;2022-12-26T09:37:17;27.13;;;14.77;;
60975;SDS011;46849;48.154;17.042;2022-12-26T09:40:02;26.48;;;15.55;;
60975;SDS011;46849;48.154;17.042;2022-12-26T09:42:53;27.48;;;15.82;;
60975;SDS011;46849;48.154;17.042;2022-12-26T09:45:54;26.00;;;14.68;;
60975;SDS011;46849;48.154;17.042;2022-12-26T09:49:08;28.38;;;14.65;;
60975;SDS011;46849;48.154;17.042;2022-12-26T09:52:16;24.92;;;13.85;;
60975;SDS011;46849;48.154;17.042;2022-12-26T10:01:12;22.70;;;12.98;;
60975;SDS011;46849;48.154;17.042;2022-12-26T10:06:47;23.10;;;12.68;;
60975;SDS011;46849;48.154;17.042;2022-12-26T10:12:52;24.73;;;14.30;;
60975;SDS011;46849;48.154;17.042;2022-12-26T10:15:45;29.02;;;16.63;;
60975;SDS011;46849;48.154;17.042;2022-12-26T10:21:57;35.50;;;18.00;;
60975;SDS011;46849;48.154;17.042;2022-12-26T10:25:11;29.27;;;16.98;;
60975;SDS011;46849;48.154;17.042;2022-12-26T10:27:59;24.50;;;14.43;;
60975;SDS011;46849;48.154;17.042;2022-12-26T10:30:46;21.65;;;13.18;;
60975;SDS011;46849;48.154;17.042;2022-12-26T10:33:38;24.45;;;15.82;;
60975;SDS011;46849;48.154;17.042;2022-12-26T10:36:44;26.70;;;15.37;;
60975;SDS011;46849;48.154;17.042;2022-12-26T10:43:24;26.13;;;15.40;;
60975;SDS011;46849;48.154;17.042;2022-12-26T10:49:15;29.60;;;17.05;;
60975;SDS011;46849;48.154;17.042;2022-12-26T10:52:03;26.05;;;15.48;;
60975;SDS011;46849;48.154;17.042;2022-12-26T10:54:50;30.40;;;18.38;;
60975;SDS011;46849;48.154;17.042;2022-12-26T10:57:39;29.92;;;15.70;;
60975;SDS011;46849;48.154;17.042;2022-12-26T11:00:27;27.23;;;15.30;;
60975;SDS011;46849;48.154;17.042;2022-12-26T11:03:13;26.90;;;14.75;;
60975;SDS011;46849;48.154;17.042;2022-12-26T11:06:02;28.25;;;15.82;;
60975;SDS011;46849;48.154;17.042;2022-12-26T11:08:49;27.73;;;15.18;;
60975;SDS011;46849;48.154;17.042;2022-12-26T11:11:35;23.45;;;14.25;;
60975;SDS011;46849;48.154;17.042;2022-12-26T11:14:38;23.05;;;13.50;;
60975;SDS011;46849;48.154;17.042;2022-12-26T11:17:28;20.90;;;13.20;;
60975;SDS011;46849;48.154;17.042;2022-12-26T11:25:57;22.83;;;13.20;;
60975;SDS011;46849;48.154;17.042;2022-12-26T11:28:44;26.35;;;15.10;;
60975;SDS011;46849;48.154;17.042;2022-12-26T11:31:49;24.10;;;13.82;;
60975;SDS011;46849;48.154;17.042;2022-12-26T11:34:38;21.90;;;11.85;;
60975;SDS011;46849;48.154;17.042;2022-12-26T11:37:29;20.85;;;13.18;;
60975;SDS011;46849;48.154;17.042;2022-12-26T11:40:21;20.30;;;12.55;;
60975;SDS011;46849;48.154;17.042;2022-12-26T11:43:12;19.73;;;11.93;;
60975;SDS011;46849;48.154;17.042;2022-12-26T11:46:00;17.55;;;11.90;;
60975;SDS011;46849;48.154;17.042;2022-12-26T11:48:46;20.30;;;12.15;;
60975;SDS011;46849;48.154;17.042;2022-12-26T11:51:34;21.48;;;13.45;;
60975;SDS011;46849;48.154;17.042;2022-12-26T11:54:34;20.63;;;11.82;;
60975;SDS011;46849;48.154;17.042;2022-12-26T11:57:21;22.30;;;12.93;;
60975;SDS011;46849;48.154;17.042;2022-12-26T12:00:19;18.40;;;12.07;;
60975;SDS011;46849;48.154;17.042;2022-12-26T12:03:17;21.35;;;12.13;;
60975;SDS011;46849;48.154;17.042;2022-12-26T12:14:42;20.02;;;12.65;;
60975;SDS011;46849;48.154;17.042;2022-12-26T12:17:38;20.80;;;12.50;;
60975;SDS011;46849;48.154;17.042;2022-12-26T12:20:40;18.67;;;11.95;;
60975;SDS011;46849;48.154;17.042;2022-12-26T12:23:46;19.63;;;12.43;;
60975;SDS011;46849;48.154;17.042;2022-12-26T12:30:18;20.50;;;13.47;;
60975;SDS011;46849;48.154;17.042;2022-12-26T12:33:18;18.10;;;13.20;;
60975;SDS011;46849;48.154;17.042;2022-12-26T12:36:16;16.33;;;11.07;;
60975;SDS011;46849;48.154;17.042;2022-12-26T12:39:08;18.05;;;11.90;;
60975;SDS011;46849;48.154;17.042;2022-12-26T12:51:03;15.77;;;11.07;;
60975;SDS011;46849;48.154;17.042;2022-12-26T13:00:25;18.45;;;12.38;;
60975;SDS011;46849;48.154;17.042;2022-12-26T13:06:12;15.27;;;11.27;;
60975;SDS011;46849;48.154;17.042;2022-12-26T13:09:04;18.17;;;11.80;;
60975;SDS011;46849;48.154;17.042;2022-12-26T13:11:57;16.20;;;10.75;;
60975;SDS011;46849;48.154;17.042;2022-12-26T13:15:04;18.02;;;11.93;;
60975;SDS011;46849;48.154;17.042;2022-12-26T13:17:55;15.55;;;10.10;;
60975;SDS011;46849;48.154;17.042;2022-12-26T13:21:07;17.10;;;11.45;;
60975;SDS011;46849;48.154;17.042;2022-12-26T13:24:05;19.08;;;11.02;;
60975;SDS011;46849;48.154;17.042;2022-12-26T13:27:14;19.00;;;12.35;;
60975;SDS011;46849;48.154;17.042;2022-12-26T13:30:14;19.45;;;12.07;;
60975;SDS011;46849;48.154;17.042;2022-12-26T13:33:01;17.38;;;10.57;;
60975;SDS011;46849;48.154;17.042;2022-12-26T13:35:53;18.90;;;11.38;;
60975;SDS011;46849;48.154;17.042;2022-12-26T13:51:39;19.20;;;11.38;;
60975;SDS011;46849;48.154;17.042;2022-12-26T13:54:26;18.30;;;11.43;;
60975;SDS011;46849;48.154;17.042;2022-12-26T14:00:39;17.48;;;11.43;;
60975;SDS011;46849;48.154;17.042;2022-12-26T14:03:45;18.20;;;12.23;;
60975;SDS011;46849;48.154;17.042;2022-12-26T14:10:20;17.08;;;10.75;;
60975;SDS011;46849;48.154;17.042;2022-12-26T14:16:38;18.45;;;10.95;;
60975;SDS011;46849;48.154;17.042;2022-12-26T14:28:46;17.05;;;10.52;;
60975;SDS011;46849;48.154;17.042;2022-12-26T14:40:38;16.17;;;10.77;;
60975;SDS011;46849;48.154;17.042;2022-12-26T14:43:45;16.88;;;11.27;;
60975;SDS011;46849;48.154;17.042;2022-12-26T14:49:20;14.23;;;10.02;;
60975;SDS011;46849;48.154;17.042;2022-12-26T15:10:11;16.95;;;11.27;;
60975;SDS011;46849;48.154;17.042;2022-12-26T15:31:37;20.02;;;12.65;;
60975;SDS011;46849;48.154;17.042;2022-12-26T15:34:34;16.17;;;10.63;;
60975;SDS011;46849;48.154;17.042;2022-12-26T15:40:32;19.42;;;11.98;;
60975;SDS011;46849;48.154;17.042;2022-12-26T15:43:27;16.45;;;10.07;;
60975;SDS011;46849;48.154;17.042;2022-12-26T15:46:24;15.60;;;10.25;;
60975;SDS011;46849;48.154;17.042;2022-12-26T15:52:24;16.15;;;10.63;;
60975;SDS011;46849;48.154;17.042;2022-12-26T15:58:07;16.10;;;10.98;;
60975;SDS011;46849;48.154;17.042;2022-12-26T16:01:08;15.45;;;10.75;;
60975;SDS011;46849;48.154;17.042;2022-12-26T16:03:54;14.70;;;10.45;;
60975;SDS011;46849;48.154;17.042;2022-12-26T16:06:45;17.02;;;11.13;;
60975;SDS011;46849;48.154;17.042;2022-12-26T16:09:44;15.68;;;10.98;;
60975;SDS011;46849;48.154;17.042;2022-12-26T16:12:33;17.88;;;11.32;;
60975;SDS011;46849;48.154;17.042;2022-12-26T16:15:19;16.65;;;10.65;;
60975;SDS011;46849;48.154;17.042;2022-12-26T16:18:12;17.67;;;11.60;;
60975;SDS011;46849;48.154;17.042;2022-12-26T16:21:02;15.05;;;9.88;;
60975;SDS011;46849;48.154;17.042;2022-12-26T16:24:08;14.52;;;9.68;;
60975;SDS011;46849;48.154;17.042;2022-12-26T16:26:55;14.93;;;10.45;;
60975;SDS011;46849;48.154;17.042;2022-12-26T16:29:54;14.43;;;9.48;;
60975;SDS011;46849;48.154;17.042;2022-12-26T16:32:43;14.65;;;10.20;;
60975;SDS011;46849;48.154;17.042;2022-12-26T16:35:31;14.30;;;9.90;;
60975;SDS011;46849;48.154;17.042;2022-12-26T16:38:26;16.17;;;10.40;;
60975;SDS011;46849;48.154;17.042;2022-12-26T16:41:29;15.20;;;11.25;;
60975;SDS011;46849;48.154;17.042;2022-12-26T16:44:30;15.80;;;11.32;;
60975;SDS011;46849;48.154;17.042;2022-12-26T16:47:17;13.82;;;10.10;;
60975;SDS011;46849;48.154;17.042;2022-12-26T16:50:02;13.25;;;9.70;;
60975;SDS011;46849;48.154;17.042;2022-12-26T16:56:10;13.32;;;9.07;;
60975;SDS011;46849;48.154;17.042;2022-12-26T16:59:20;14.23;;;9.23;;
60975;SDS011;46849;48.154;17.042;2022-12-26T17:02:12;12.68;;;9.35;;
60975;SDS011;46849;48.154;17.042;2022-12-26T17:05:02;11.60;;;8.93;;
60975;SDS011;46849;48.154;17.042;2022-12-26T17:08:09;12.82;;;9.40;;
60975;SDS011;46849;48.154;17.042;2022-12-26T17:10:57;11.75;;;7.45;;
60975;SDS011;46849;48.154;17.042;2022-12-26T17:13:50;11.80;;;7.45;;
60975;SDS011;46849;48.154;17.042;2022-12-26T17:16:36;12.77;;;9.43;;
60975;SDS011;46849;48.154;17.042;2022-12-26T17:19:23;12.13;;;8.88;;
60975;SDS011;46849;48.154;17.042;2022-12-26T17:25:19;12.68;;;8.65;;
60975;SDS011;46849;48.154;17.042;2022-12-26T17:31:20;8.00;;;5.47;;
60975;SDS011;46849;48.154;17.042;2022-12-26T17:34:24;13.63;;;9.40;;
60975;SDS011;46849;48.154;17.042;2022-12-26T17:37:23;21.17;;;14.20;;
60975;SDS011;46849;48.154;17.042;2022-12-26T17:45:55;10.98;;;7.20;;
60975;SDS011;46849;48.154;17.042;2022-12-26T17:48:40;11.07;;;7.93;;
60975;SDS011;46849;48.154;17.042;2022-12-26T17:51:25;19.48;;;11.57;;
60975;SDS011;46849;48.154;17.042;2022-12-26T17:54:13;10.65;;;6.93;;
60975;SDS011;46849;48.154;17.042;2022-12-26T17:56:59;13.20;;;8.52;;
60975;SDS011;46849;48.154;17.042;2022-12-26T17:59:45;11.48;;;7.32;;
60975;SDS011;46849;48.154;17.042;2022-12-26T18:02:30;9.63;;;6.93;;
60975;SDS011;46849;48.154;17.042;2022-12-26T18:05:15;8.63;;;6.40;;
60975;SDS011;46849;48.154;17.042;2022-12-26T18:08:03;9.60;;;6.40;;
60975;SDS011;46849;48.154;17.042;2022-12-26T18:10:49;10.48;;;6.95;;
60975;SDS011;46849;48.154;17.042;2022-12-26T18:13:33;10.10;;;7.22;;
60975;SDS011;46849;48.154;17.042;2022-12-26T18:16:18;11.23;;;7.47;;
60975;SDS011;46849;48.154;17.042;2022-12-26T18:19:03;9.43;;;6.50;;
60975;SDS011;46849;48.154;17.042;2022-12-26T18:21:50;10.73;;;7.65;;
60975;SDS011;46849;48.154;17.042;2022-12-26T18:24:35;9.20;;;6.97;;
60975;SDS011;46849;48.154;17.042;2022-12-26T18:27:29;8.00;;;5.70;;
60975;SDS011;46849;48.154;17.042;2022-12-26T18:30:17;9.50;;;6.40;;
60975;SDS011;46849;48.154;17.042;2022-12-26T18:33:08;9.07;;;6.10;;
60975;SDS011;46849;48.154;17.042;2022-12-26T18:35:54;7.90;;;5.50;;
60975;SDS011;46849;48.154;17.042;2022-12-26T18:38:39;9.07;;;5.72;;
60975;SDS011;46849;48.154;17.042;2022-12-26T18:41:24;8.68;;;6.07;;
60975;SDS011;46849;48.154;17.042;2022-12-26T18:44:08;10.07;;;5.97;;
60975;SDS011;46849;48.154;17.042;2022-12-26T18:46:53;7.85;;;5.65;;
60975;SDS011;46849;48.154;17.042;2022-12-26T18:49:39;8.73;;;6.25;;
60975;SDS011;46849;48.154;17.042;2022-12-26T18:52:25;8.35;;;5.45;;
60975;SDS011;46849;48.154;17.042;2022-12-26T18:55:09;6.93;;;4.82;;
60975;SDS011;46849;48.154;17.042;2022-12-26T18:57:54;14.82;;;9.55;;
60975;SDS011;46849;48.154;17.042;2022-12-26T19:00:39;7.90;;;5.72;;
60975;SDS011;46849;48.154;17.042;2022-12-26T19:03:24;8.30;;;5.95;;
60975;SDS011;46849;48.154;17.042;2022-12-26T19:06:13;8.13;;;5.18;;
60975;SDS011;46849;48.154;17.042;2022-12-26T19:09:02;7.18;;;4.47;;
60975;SDS011;46849;48.154;17.042;2022-12-26T19:11:47;11.50;;;6.95;;
60975;SDS011;46849;48.154;17.042;2022-12-26T19:14:31;8.52;;;6.03;;
60975;SDS011;46849;48.154;17.042;2022-12-26T19:17:16;8.02;;;5.40;;
60975;SDS011;46849;48.154;17.042;2022-12-26T19:20:01;8.60;;;6.18;;
60975;SDS011;46849;48.154;17.042;2022-12-26T19:22:45;7.55;;;5.32;;
60975;SDS011;46849;48.154;17.042;2022-12-26T19:25:31;8.73;;;5.60;;
60975;SDS011;46849;48.154;17.042;2022-12-26T19:28:17;11.20;;;7.63;;
60975;SDS011;46849;48.154;17.042;2022-12-26T19:31:08;8.45;;;5.68;;
60975;SDS011;46849;48.154;17.042;2022-12-26T19:33:56;8.07;;;5.35;;
60975;SDS011;46849;48.154;17.042;2022-12-26T19:36:42;6.10;;;4.32;;
60975;SDS011;46849;48.154;17.042;2022-12-26T19:39:27;7.18;;;4.40;;
60975;SDS011;46849;48.154;17.042;2022-12-26T19:42:11;7.40;;;5.00;;
60975;SDS011;46849;48.154;17.042;2022-12-26T19:44:56;9.63;;;5.15;;
60975;SDS011;46849;48.154;17.042;2022-12-26T19:47:40;6.97;;;4.57;;
60975;SDS011;46849;48.154;17.042;2022-12-26T19:50:25;6.30;;;4.38;;
60975;SDS011;46849;48.154;17.042;2022-12-26T19:53:10;5.78;;;4.13;;
60975;SDS011;46849;48.154;17.042;2022-12-26T19:55:55;7.38;;;4.75;;
60975;SDS011;46849;48.154;17.042;2022-12-26T19:58:40;6.65;;;4.50;;
60975;SDS011;46849;48.154;17.042;2022-12-26T20:01:27;7.32;;;4.75;;
60975;SDS011;46849;48.154;17.042;2022-12-26T20:04:13;8.02;;;4.60;;
60975;SDS011;46849;48.154;17.042;2022-12-26T20:06:59;7.50;;;4.95;;
60975;SDS011;46849;48.154;17.042;2022-12-26T20:09:45;8.48;;;4.85;;
60975;SDS011;46849;48.154;17.042;2022-12-26T20:12:30;7.50;;;5.03;;
60975;SDS011;46849;48.154;17.042;2022-12-26T20:15:17;6.70;;;4.75;;
60975;SDS011;46849;48.154;17.042;2022-12-26T20:18:02;8.50;;;4.90;;
60975;SDS011;46849;48.154;17.042;2022-12-26T20:20:53;8.65;;;5.38;;
60975;SDS011;46849;48.154;17.042;2022-12-26T20:23:39;8.10;;;4.82;;